sensor_id;sensor_type;location;lat;lon;timestamp;pressure;altitude;pressure_sealevel;temperature;humidity
54248;BME280;40161;39.768;2.722;2023-08-08T00:00:06;101406.34;;;24.04;62.13
54248;BME280;40161;39.768;2.722;2023-08-08T00:02:34;101439.22;;;24.33;62.15
54248;BME280;40161;39.768;2.722;2023-08-08T00:04:59;101469.13;;;24.52;61.91
54248;BME280;40161;39.768;2.722;2023-08-08T00:07:25;101400.34;;;24.19;61.71
54248;BME280;40161;39.768;2.722;2023-08-08T00:09:50;101433.78;;;24.26;61.47
54248;BME280;40161;39.768;2.722;2023-08-08T00:12:16;101433.25;;;24.31;61.52
54248;BME280;40161;39.768;2.722;2023-08-08T00:14:41;101420.69;;;24.23;61.19
54248;BME280;40161;39.768;2.722;2023-08-08T00:17:07;101428.50;;;24.15;61.28
54248;BME280;40161;39.768;2.722;2023-08-08T00:19:32;101467.22;;;24.49;61.58
54248;BME280;40161;39.768;2.722;2023-08-08T00:21:58;101440.94;;;24.14;61.81
54248;BME280;40161;39.768;2.722;2023-08-08T00:24:23;101436.31;;;24.07;62.66
54248;BME280;40161;39.768;2.722;2023-08-08T00:26:49;101446.19;;;24.12;62.65
54248;BME280;40161;39.768;2.722;2023-08-08T00:29:14;101466.56;;;24.29;62.97
54248;BME280;40161;39.768;2.722;2023-08-08T00:31:40;101469.81;;;24.27;63.34
54248;BME280;40161;39.768;2.722;2023-08-08T00:34:05;101433.13;;;23.92;62.50
54248;BME280;40161;39.768;2.722;2023-08-08T00:36:31;101464.56;;;23.84;64.29
54248;BME280;40161;39.768;2.722;2023-08-08T00:38:56;101434.91;;;23.70;64.97
54248;BME280;40161;39.768;2.722;2023-08-08T00:41:22;101419.91;;;23.60;64.42
54248;BME280;40161;39.768;2.722;2023-08-08T00:43:47;101421.34;;;23.19;66.05
54248;BME280;40161;39.768;2.722;2023-08-08T00:46:13;101416.78;;;23.09;67.32
54248;BME280;40161;39.768;2.722;2023-08-08T00:48:39;101425.88;;;23.46;66.07
54248;BME280;40161;39.768;2.722;2023-08-08T00:51:05;101418.09;;;23.54;65.52
54248;BME280;40161;39.768;2.722;2023-08-08T00:53:30;101460.56;;;23.85;65.31
54248;BME280;40161;39.768;2.722;2023-08-08T00:55:58;101458.78;;;23.91;65.34
54248;BME280;40161;39.768;2.722;2023-08-08T00:58:24;101441.38;;;23.83;65.07
54248;BME280;40161;39.768;2.722;2023-08-08T01:00:49;101442.34;;;23.77;64.95
54248;BME280;40161;39.768;2.722;2023-08-08T01:03:15;101473.03;;;23.97;65.61
54248;BME280;40161;39.768;2.722;2023-08-08T01:05:48;101464.72;;;23.93;65.02
54248;BME280;40161;39.768;2.722;2023-08-08T01:08:21;101445.13;;;23.77;65.27
54248;BME280;40161;39.768;2.722;2023-08-08T01:10:48;101458.09;;;23.87;65.32
54248;BME280;40161;39.768;2.722;2023-08-08T01:13:20;101414.31;;;23.60;65.50
54248;BME280;40161;39.768;2.722;2023-08-08T01:15:48;101456.41;;;23.89;65.78
54248;BME280;40161;39.768;2.722;2023-08-08T01:18:15;101459.25;;;23.73;65.99
54248;BME280;40161;39.768;2.722;2023-08-08T01:20:42;101405.78;;;22.82;68.30
54248;BME280;40161;39.768;2.722;2023-08-08T01:23:33;101466.69;;;22.94;70.47
54248;BME280;40161;39.768;2.722;2023-08-08T01:26:00;101452.84;;;23.24;68.34
54248;BME280;40161;39.768;2.722;2023-08-08T01:28:27;101457.13;;;23.44;67.81
54248;BME280;40161;39.768;2.722;2023-08-08T01:30:52;101457.47;;;23.46;67.61
54248;BME280;40161;39.768;2.722;2023-08-08T01:33:19;101415.38;;;22.81;68.90
54248;BME280;40161;39.768;2.722;2023-08-08T01:35:47;101431.91;;;22.95;69.46
54248;BME280;40161;39.768;2.722;2023-08-08T01:38:31;101444.06;;;23.21;68.53
54248;BME280;40161;39.768;2.722;2023-08-08T01:40:57;101469.13;;;23.45;68.65
54248;BME280;40161;39.768;2.722;2023-08-08T01:43:24;101417.03;;;23.15;68.47
54248;BME280;40161;39.768;2.722;2023-08-08T01:45:50;101431.22;;;23.24;68.27
54248;BME280;40161;39.768;2.722;2023-08-08T01:48:16;101429.47;;;23.30;67.96
54248;BME280;40161;39.768;2.722;2023-08-08T01:50:41;101446.81;;;23.41;67.32
54248;BME280;40161;39.768;2.722;2023-08-08T01:53:07;101439.69;;;22.84;70.27
54248;BME280;40161;39.768;2.722;2023-08-08T01:55:33;101443.50;;;22.58;71.52
54248;BME280;40161;39.768;2.722;2023-08-08T01:57:58;101437.59;;;22.52;72.21
54248;BME280;40161;39.768;2.722;2023-08-08T02:00:24;101416.09;;;22.29;72.61
54248;BME280;40161;39.768;2.722;2023-08-08T02:02:49;101405.13;;;22.18;73.64
54248;BME280;40161;39.768;2.722;2023-08-08T02:05:15;101439.75;;;22.24;72.98
54248;BME280;40161;39.768;2.722;2023-08-08T02:07:40;101388.25;;;22.02;74.64
54248;BME280;40161;39.768;2.722;2023-08-08T02:10:06;101374.41;;;21.95;73.68
54248;BME280;40161;39.768;2.722;2023-08-08T02:12:32;101379.66;;;21.93;74.33
54248;BME280;40161;39.768;2.722;2023-08-08T02:14:58;101433.53;;;22.37;74.58
54248;BME280;40161;39.768;2.722;2023-08-08T02:17:24;101436.59;;;22.22;74.38
54248;BME280;40161;39.768;2.722;2023-08-08T02:19:51;101409.63;;;22.12;75.19
54248;BME280;40161;39.768;2.722;2023-08-08T02:22:17;101380.06;;;21.91;75.38
54248;BME280;40161;39.768;2.722;2023-08-08T02:24:42;101414.53;;;22.48;73.77
54248;BME280;40161;39.768;2.722;2023-08-08T02:27:08;101415.28;;;22.68;73.15
54248;BME280;40161;39.768;2.722;2023-08-08T02:29:34;101347.19;;;22.39;71.81
54248;BME280;40161;39.768;2.722;2023-08-08T02:31:59;101387.28;;;22.32;73.68
54248;BME280;40161;39.768;2.722;2023-08-08T02:34:25;101375.13;;;21.79;75.43
54248;BME280;40161;39.768;2.722;2023-08-08T02:36:50;101375.94;;;21.99;75.92
54248;BME280;40161;39.768;2.722;2023-08-08T02:39:16;101390.53;;;22.31;73.91
54248;BME280;40161;39.768;2.722;2023-08-08T02:41:41;101377.25;;;22.35;73.39
54248;BME280;40161;39.768;2.722;2023-08-08T02:44:08;101429.81;;;22.80;72.41
54248;BME280;40161;39.768;2.722;2023-08-08T02:46:33;101420.41;;;22.90;72.08
54248;BME280;40161;39.768;2.722;2023-08-08T02:48:59;101381.00;;;22.64;72.34
54248;BME280;40161;39.768;2.722;2023-08-08T02:51:24;101398.06;;;22.70;71.64
54248;BME280;40161;39.768;2.722;2023-08-08T02:53:50;101375.84;;;22.26;73.44
54248;BME280;40161;39.768;2.722;2023-08-08T02:56:15;101373.28;;;21.92;75.60
54248;BME280;40161;39.768;2.722;2023-08-08T02:58:41;101387.22;;;21.72;76.02
54248;BME280;40161;39.768;2.722;2023-08-08T03:01:06;101397.13;;;21.53;77.49
54248;BME280;40161;39.768;2.722;2023-08-08T03:03:32;101377.78;;;21.43;78.19
54248;BME280;40161;39.768;2.722;2023-08-08T03:05:58;101400.44;;;21.48;79.42
54248;BME280;40161;39.768;2.722;2023-08-08T03:08:23;101367.44;;;21.40;79.17
54248;BME280;40161;39.768;2.722;2023-08-08T03:10:49;101408.63;;;22.02;78.05
54248;BME280;40161;39.768;2.722;2023-08-08T03:13:14;101361.50;;;21.61;77.92
54248;BME280;40161;39.768;2.722;2023-08-08T03:15:40;101405.94;;;21.95;78.28
54248;BME280;40161;39.768;2.722;2023-08-08T03:18:05;101390.13;;;22.09;77.52
54248;BME280;40161;39.768;2.722;2023-08-08T03:20:31;101405.50;;;22.40;76.87
54248;BME280;40161;39.768;2.722;2023-08-08T03:22:56;101363.91;;;22.22;75.85
54248;BME280;40161;39.768;2.722;2023-08-08T03:25:22;101410.41;;;22.52;75.04
54248;BME280;40161;39.768;2.722;2023-08-08T03:27:47;101412.81;;;22.54;75.31
54248;BME280;40161;39.768;2.722;2023-08-08T03:30:13;101404.91;;;22.49;74.79
54248;BME280;40161;39.768;2.722;2023-08-08T03:32:39;101377.28;;;21.91;77.30
54248;BME280;40161;39.768;2.722;2023-08-08T03:35:04;101342.50;;;21.52;78.84
54248;BME280;40161;39.768;2.722;2023-08-08T03:37:31;101411.50;;;22.19;78.57
54248;BME280;40161;39.768;2.722;2023-08-08T03:39:56;101393.66;;;22.33;76.67
54248;BME280;40161;39.768;2.722;2023-08-08T03:42:22;101346.03;;;22.20;76.14
54248;BME280;40161;39.768;2.722;2023-08-08T03:44:47;101338.41;;;22.20;75.81
54248;BME280;40161;39.768;2.722;2023-08-08T03:47:13;101340.34;;;22.23;75.28
54248;BME280;40161;39.768;2.722;2023-08-08T03:49:39;101358.75;;;22.41;75.08
54248;BME280;40161;39.768;2.722;2023-08-08T03:52:04;101382.53;;;22.09;76.70
54248;BME280;40161;39.768;2.722;2023-08-08T03:54:30;101385.13;;;22.00;78.58
54248;BME280;40161;39.768;2.722;2023-08-08T03:56:56;101322.19;;;21.52;78.31
54248;BME280;40161;39.768;2.722;2023-08-08T03:59:21;101347.41;;;21.68;79.13
54248;BME280;40161;39.768;2.722;2023-08-08T04:01:47;101380.47;;;22.13;78.13
54248;BME280;40161;39.768;2.722;2023-08-08T04:04:12;101381.06;;;22.24;77.33
54248;BME280;40161;39.768;2.722;2023-08-08T04:06:38;101344.00;;;21.57;79.18
54248;BME280;40161;39.768;2.722;2023-08-08T04:09:03;101393.16;;;21.54;81.37
54248;BME280;40161;39.768;2.722;2023-08-08T04:11:29;101386.22;;;21.39;81.93
54248;BME280;40161;39.768;2.722;2023-08-08T04:13:55;101370.97;;;21.44;82.83
54248;BME280;40161;39.768;2.722;2023-08-08T04:16:20;101393.41;;;21.84;80.67
54248;BME280;40161;39.768;2.722;2023-08-08T04:18:46;101369.34;;;21.90;79.31
54248;BME280;40161;39.768;2.722;2023-08-08T04:21:11;101407.44;;;22.23;78.85
54248;BME280;40161;39.768;2.722;2023-08-08T04:23:37;101393.47;;;22.23;77.83
54248;BME280;40161;39.768;2.722;2023-08-08T04:26:02;101368.00;;;22.18;77.96
54248;BME280;40161;39.768;2.722;2023-08-08T04:28:28;101392.16;;;22.28;77.11
54248;BME280;40161;39.768;2.722;2023-08-08T04:30:53;101404.13;;;22.28;77.70
54248;BME280;40161;39.768;2.722;2023-08-08T04:33:19;101396.94;;;21.64;79.73
54248;BME280;40161;39.768;2.722;2023-08-08T04:35:44;101360.53;;;21.24;81.13
54248;BME280;40161;39.768;2.722;2023-08-08T04:38:10;101354.94;;;21.24;81.86
54248;BME280;40161;39.768;2.722;2023-08-08T04:40:36;101402.06;;;21.46;81.74
54248;BME280;40161;39.768;2.722;2023-08-08T04:43:01;101410.56;;;21.62;82.62
54248;BME280;40161;39.768;2.722;2023-08-08T04:45:27;101367.44;;;21.63;80.62
54248;BME280;40161;39.768;2.722;2023-08-08T04:47:54;101382.53;;;21.89;79.91
54248;BME280;40161;39.768;2.722;2023-08-08T04:50:20;101400.50;;;21.88;79.77
54248;BME280;40161;39.768;2.722;2023-08-08T04:52:45;101405.00;;;22.02;80.33
54248;BME280;40161;39.768;2.722;2023-08-08T04:55:11;101398.44;;;22.12;79.28
54248;BME280;40161;39.768;2.722;2023-08-08T04:57:36;101405.31;;;22.08;79.77
54248;BME280;40161;39.768;2.722;2023-08-08T05:00:02;101333.66;;;21.77;79.02
54248;BME280;40161;39.768;2.722;2023-08-08T05:02:30;101363.19;;;21.78;79.58
54248;BME280;40161;39.768;2.722;2023-08-08T05:04:56;101369.06;;;21.61;81.15
54248;BME280;40161;39.768;2.722;2023-08-08T05:07:21;101363.41;;;21.64;81.24
54248;BME280;40161;39.768;2.722;2023-08-08T05:09:47;101396.94;;;21.64;81.02
54248;BME280;40161;39.768;2.722;2023-08-08T05:12:12;101404.66;;;21.56;83.15
54248;BME280;40161;39.768;2.722;2023-08-08T05:14:38;101391.59;;;21.50;83.80
54248;BME280;40161;39.768;2.722;2023-08-08T05:17:04;101395.53;;;21.76;82.91
54248;BME280;40161;39.768;2.722;2023-08-08T05:19:29;101403.88;;;21.99;80.83
54248;BME280;40161;39.768;2.722;2023-08-08T05:21:55;101389.19;;;21.75;82.23
54248;BME280;40161;39.768;2.722;2023-08-08T05:24:20;101414.66;;;21.54;83.88
54248;BME280;40161;39.768;2.722;2023-08-08T05:26:46;101360.19;;;21.19;84.66
54248;BME280;40161;39.768;2.722;2023-08-08T05:29:11;101402.31;;;21.55;84.52
54248;BME280;40161;39.768;2.722;2023-08-08T05:31:37;101377.94;;;21.32;83.70
54248;BME280;40161;39.768;2.722;2023-08-08T05:34:02;101378.88;;;21.49;84.29
54248;BME280;40161;39.768;2.722;2023-08-08T05:36:28;101367.19;;;21.54;83.28
54248;BME280;40161;39.768;2.722;2023-08-08T05:38:53;101396.78;;;21.95;81.46
54248;BME280;40161;39.768;2.722;2023-08-08T05:41:19;101368.94;;;21.48;82.92
54248;BME280;40161;39.768;2.722;2023-08-08T05:43:44;101363.75;;;21.46;84.18
54248;BME280;40161;39.768;2.722;2023-08-08T05:46:10;101384.59;;;21.85;82.63
54248;BME280;40161;39.768;2.722;2023-08-08T05:48:35;101378.44;;;21.94;82.19
54248;BME280;40161;39.768;2.722;2023-08-08T05:51:01;101364.84;;;21.96;81.10
54248;BME280;40161;39.768;2.722;2023-08-08T05:53:30;101331.94;;;21.84;81.03
54248;BME280;40161;39.768;2.722;2023-08-08T05:55:56;101364.09;;;22.12;80.88
54248;BME280;40161;39.768;2.722;2023-08-08T05:58:21;101362.53;;;22.11;80.61
54248;BME280;40161;39.768;2.722;2023-08-08T06:00:47;101366.50;;;22.13;79.99
54248;BME280;40161;39.768;2.722;2023-08-08T06:03:13;101412.88;;;22.50;79.38
54248;BME280;40161;39.768;2.722;2023-08-08T06:05:38;101354.66;;;22.25;79.25
54248;BME280;40161;39.768;2.722;2023-08-08T06:08:04;101412.19;;;22.63;79.31
54248;BME280;40161;39.768;2.722;2023-08-08T06:10:32;101368.41;;;22.36;79.14
54248;BME280;40161;39.768;2.722;2023-08-08T06:12:57;101401.16;;;22.56;79.76
54248;BME280;40161;39.768;2.722;2023-08-08T06:15:23;101376.47;;;22.34;79.71
54248;BME280;40161;39.768;2.722;2023-08-08T06:17:48;101358.41;;;22.19;79.96
54248;BME280;40161;39.768;2.722;2023-08-08T06:20:14;101430.16;;;22.25;81.78
54248;BME280;40161;39.768;2.722;2023-08-08T06:22:41;101383.88;;;22.01;81.93
54248;BME280;40161;39.768;2.722;2023-08-08T06:25:07;101381.88;;;22.01;81.95
54248;BME280;40161;39.768;2.722;2023-08-08T06:27:33;101409.72;;;22.28;81.89
54248;BME280;40161;39.768;2.722;2023-08-08T06:29:58;101411.16;;;22.37;80.80
54248;BME280;40161;39.768;2.722;2023-08-08T06:32:24;101383.53;;;22.39;80.62
54248;BME280;40161;39.768;2.722;2023-08-08T06:34:49;101433.31;;;22.84;80.33
54248;BME280;40161;39.768;2.722;2023-08-08T06:37:15;101407.16;;;22.74;79.97
54248;BME280;40161;39.768;2.722;2023-08-08T06:39:40;101396.69;;;22.78;80.01
54248;BME280;40161;39.768;2.722;2023-08-08T06:42:07;101394.06;;;22.87;80.27
54248;BME280;40161;39.768;2.722;2023-08-08T06:44:33;101421.94;;;23.11;80.17
54248;BME280;40161;39.768;2.722;2023-08-08T06:46:59;101372.53;;;22.84;79.62
54248;BME280;40161;39.768;2.722;2023-08-08T06:49:24;101370.47;;;22.88;78.69
54248;BME280;40161;39.768;2.722;2023-08-08T06:51:50;101393.25;;;23.07;78.30
54248;BME280;40161;39.768;2.722;2023-08-08T06:54:15;101391.34;;;23.20;77.16
54248;BME280;40161;39.768;2.722;2023-08-08T06:56:41;101411.38;;;23.35;75.81
54248;BME280;40161;39.768;2.722;2023-08-08T06:59:06;101422.03;;;23.40;75.43
54248;BME280;40161;39.768;2.722;2023-08-08T07:01:32;101401.81;;;23.32;74.86
54248;BME280;40161;39.768;2.722;2023-08-08T07:03:57;101415.53;;;23.43;74.30
54248;BME280;40161;39.768;2.722;2023-08-08T07:06:23;101437.94;;;23.59;73.84
54248;BME280;40161;39.768;2.722;2023-08-08T07:08:49;101429.03;;;23.64;73.11
54248;BME280;40161;39.768;2.722;2023-08-08T07:11:14;101394.66;;;23.48;73.02
54248;BME280;40161;39.768;2.722;2023-08-08T07:13:40;101419.38;;;23.65;72.63
54248;BME280;40161;39.768;2.722;2023-08-08T07:16:05;101387.19;;;23.57;72.21
54248;BME280;40161;39.768;2.722;2023-08-08T07:18:31;101417.72;;;23.84;69.31
54248;BME280;40161;39.768;2.722;2023-08-08T07:20:56;101437.59;;;24.19;67.99
54248;BME280;40161;39.768;2.722;2023-08-08T07:23:22;101398.19;;;24.10;67.36
54248;BME280;40161;39.768;2.722;2023-08-08T07:25:48;101408.06;;;24.14;67.47
54248;BME280;40161;39.768;2.722;2023-08-08T07:28:13;101444.38;;;24.34;68.12
54248;BME280;40161;39.768;2.722;2023-08-08T07:30:40;101437.53;;;24.35;68.86
54248;BME280;40161;39.768;2.722;2023-08-08T07:33:06;101406.75;;;24.19;69.07
54248;BME280;40161;39.768;2.722;2023-08-08T07:35:34;101439.72;;;24.44;68.89
54248;BME280;40161;39.768;2.722;2023-08-08T07:38:00;101443.75;;;24.43;68.85
54248;BME280;40161;39.768;2.722;2023-08-08T07:40:25;101406.47;;;24.30;68.20
54248;BME280;40161;39.768;2.722;2023-08-08T07:42:51;101441.75;;;24.56;68.32
54248;BME280;40161;39.768;2.722;2023-08-08T07:45:17;101418.06;;;24.45;67.68
54248;BME280;40161;39.768;2.722;2023-08-08T07:47:42;101395.28;;;24.43;67.31
54248;BME280;40161;39.768;2.722;2023-08-08T07:50:08;101394.94;;;24.41;65.77
54248;BME280;40161;39.768;2.722;2023-08-08T07:52:35;101411.34;;;24.55;64.62
54248;BME280;40161;39.768;2.722;2023-08-08T07:55:02;101440.31;;;24.77;65.07
54248;BME280;40161;39.768;2.722;2023-08-08T07:57:28;101444.25;;;24.80;65.02
54248;BME280;40161;39.768;2.722;2023-08-08T07:59:55;101403.97;;;24.61;65.01
54248;BME280;40161;39.768;2.722;2023-08-08T08:02:21;101451.13;;;24.92;65.00
54248;BME280;40161;39.768;2.722;2023-08-08T08:04:47;101434.28;;;24.79;65.00
54248;BME280;40161;39.768;2.722;2023-08-08T08:07:12;101419.56;;;24.75;64.53
54248;BME280;40161;39.768;2.722;2023-08-08T08:09:38;101445.31;;;24.99;64.12
54248;BME280;40161;39.768;2.722;2023-08-08T08:12:04;101392.84;;;24.70;63.84
54248;BME280;40161;39.768;2.722;2023-08-08T08:14:30;101459.47;;;25.21;64.28
54248;BME280;40161;39.768;2.722;2023-08-08T08:16:55;101450.81;;;25.15;64.87
54248;BME280;40161;39.768;2.722;2023-08-08T08:19:21;101468.00;;;25.30;65.14
54248;BME280;40161;39.768;2.722;2023-08-08T08:21:47;101424.63;;;25.05;65.43
54248;BME280;40161;39.768;2.722;2023-08-08T08:24:12;101464.63;;;25.35;65.17
54248;BME280;40161;39.768;2.722;2023-08-08T08:26:38;101455.28;;;25.38;65.44
54248;BME280;40161;39.768;2.722;2023-08-08T08:29:03;101460.69;;;25.45;65.58
54248;BME280;40161;39.768;2.722;2023-08-08T08:31:29;101423.31;;;25.23;64.66
54248;BME280;40161;39.768;2.722;2023-08-08T08:33:54;101466.53;;;25.51;65.31
54248;BME280;40161;39.768;2.722;2023-08-08T08:36:20;101422.59;;;25.31;64.21
54248;BME280;40161;39.768;2.722;2023-08-08T08:38:47;101435.28;;;25.49;63.92
54248;BME280;40161;39.768;2.722;2023-08-08T08:41:17;101461.56;;;25.68;64.92
54248;BME280;40161;39.768;2.722;2023-08-08T08:43:43;101421.94;;;25.40;64.30
54248;BME280;40161;39.768;2.722;2023-08-08T08:46:11;101483.88;;;25.84;63.70
54248;BME280;40161;39.768;2.722;2023-08-08T08:48:36;101436.03;;;25.62;63.78
54248;BME280;40161;39.768;2.722;2023-08-08T08:51:02;101448.16;;;25.72;63.64
54248;BME280;40161;39.768;2.722;2023-08-08T08:53:28;101435.00;;;25.69;63.81
54248;BME280;40161;39.768;2.722;2023-08-08T08:55:56;101440.38;;;25.76;63.87
54248;BME280;40161;39.768;2.722;2023-08-08T08:58:24;101475.94;;;26.04;63.06
54248;BME280;40161;39.768;2.722;2023-08-08T09:00:51;101444.41;;;25.88;62.46
54248;BME280;40161;39.768;2.722;2023-08-08T09:03:17;101481.22;;;26.15;62.10
54248;BME280;40161;39.768;2.722;2023-08-08T09:05:45;101430.25;;;25.91;62.84
54248;BME280;40161;39.768;2.722;2023-08-08T09:08:11;101469.16;;;26.15;64.02
54248;BME280;40161;39.768;2.722;2023-08-08T09:10:37;101369.97;;;25.57;63.58
54248;BME280;40161;39.768;2.722;2023-08-08T09:13:03;101470.09;;;26.34;63.56
54248;BME280;40161;39.768;2.722;2023-08-08T09:15:33;101442.94;;;26.18;62.93
54248;BME280;40161;39.768;2.722;2023-08-08T09:18:00;101443.16;;;26.23;63.42
54248;BME280;40161;39.768;2.722;2023-08-08T09:20:26;101494.47;;;26.49;63.29
54248;BME280;40161;39.768;2.722;2023-08-08T09:22:55;101486.22;;;26.55;63.72
54248;BME280;40161;39.768;2.722;2023-08-08T09:25:21;101480.59;;;26.55;63.15
54248;BME280;40161;39.768;2.722;2023-08-08T09:27:47;101426.13;;;26.27;63.40
54248;BME280;40161;39.768;2.722;2023-08-08T09:30:13;101450.00;;;26.44;63.22
54248;BME280;40161;39.768;2.722;2023-08-08T09:32:38;101495.44;;;26.78;63.12
54248;BME280;40161;39.768;2.722;2023-08-08T09:35:04;101489.34;;;26.79;62.72
54248;BME280;40161;39.768;2.722;2023-08-08T09:37:33;101452.94;;;26.63;61.88
54248;BME280;40161;39.768;2.722;2023-08-08T09:39:59;101486.88;;;26.90;61.82
54248;BME280;40161;39.768;2.722;2023-08-08T09:42:29;101460.63;;;26.93;61.71
54248;BME280;40161;39.768;2.722;2023-08-08T09:44:59;101437.53;;;26.77;61.08
54248;BME280;40161;39.768;2.722;2023-08-08T09:47:25;101468.50;;;27.08;60.29
54248;BME280;40161;39.768;2.722;2023-08-08T09:49:59;101429.50;;;26.88;59.92
54248;BME280;40161;39.768;2.722;2023-08-08T09:52:27;101463.53;;;27.12;61.54
54248;BME280;40161;39.768;2.722;2023-08-08T09:54:53;101462.47;;;27.18;61.38
54248;BME280;40161;39.768;2.722;2023-08-08T09:57:19;101438.44;;;27.05;60.54
54248;BME280;40161;39.768;2.722;2023-08-08T09:59:45;101421.25;;;27.03;61.06
54248;BME280;40161;39.768;2.722;2023-08-08T10:02:14;101435.69;;;27.14;61.42
54248;BME280;40161;39.768;2.722;2023-08-08T10:04:44;101452.94;;;27.25;60.39
54248;BME280;40161;39.768;2.722;2023-08-08T10:07:10;101458.63;;;27.34;60.32
54248;BME280;40161;39.768;2.722;2023-08-08T10:09:36;101398.22;;;27.04;60.83
54248;BME280;40161;39.768;2.722;2023-08-08T10:12:04;101428.06;;;27.24;60.18
54248;BME280;40161;39.768;2.722;2023-08-08T10:14:35;101457.09;;;27.52;61.26
54248;BME280;40161;39.768;2.722;2023-08-08T10:17:07;101425.44;;;27.38;60.49
54248;BME280;40161;39.768;2.722;2023-08-08T10:19:33;101455.22;;;27.58;59.78
54248;BME280;40161;39.768;2.722;2023-08-08T10:22:05;101427.03;;;27.49;59.91
54248;BME280;40161;39.768;2.722;2023-08-08T10:24:34;101459.00;;;27.73;60.65
54248;BME280;40161;39.768;2.722;2023-08-08T10:27:04;101472.19;;;27.76;59.86
54248;BME280;40161;39.768;2.722;2023-08-08T10:29:32;101473.00;;;27.86;59.43
54248;BME280;40161;39.768;2.722;2023-08-08T10:31:58;101440.69;;;27.68;59.85
54248;BME280;40161;39.768;2.722;2023-08-08T10:34:36;101479.75;;;27.88;59.98
54248;BME280;40161;39.768;2.722;2023-08-08T10:37:05;101443.81;;;27.61;59.18
54248;BME280;40161;39.768;2.722;2023-08-08T10:39:33;101430.03;;;27.63;59.84
54248;BME280;40161;39.768;2.722;2023-08-08T10:42:03;101467.69;;;27.88;59.64
54248;BME280;40161;39.768;2.722;2023-08-08T10:44:29;101438.34;;;27.67;59.57
54248;BME280;40161;39.768;2.722;2023-08-08T10:46:55;101464.69;;;27.82;58.55
54248;BME280;40161;39.768;2.722;2023-08-08T10:49:21;101416.38;;;27.53;59.69
54248;BME280;40161;39.768;2.722;2023-08-08T10:51:49;101474.56;;;27.96;59.89
54248;BME280;40161;39.768;2.722;2023-08-08T10:54:25;101429.91;;;27.76;58.96
54248;BME280;40161;39.768;2.722;2023-08-08T10:56:57;101424.88;;;27.80;58.85
54248;BME280;40161;39.768;2.722;2023-08-08T11:01:51;101417.38;;;27.96;58.21
54248;BME280;40161;39.768;2.722;2023-08-08T11:04:24;101448.56;;;28.20;57.35
54248;BME280;40161;39.768;2.722;2023-08-08T11:06:53;101447.28;;;28.21;57.37
54248;BME280;40161;39.768;2.722;2023-08-08T11:09:19;101443.03;;;28.34;57.67
54248;BME280;40161;39.768;2.722;2023-08-08T11:11:45;101405.13;;;28.08;57.56
54248;BME280;40161;39.768;2.722;2023-08-08T11:14:19;101419.72;;;28.15;56.74
54248;BME280;40161;39.768;2.722;2023-08-08T11:16:46;101443.34;;;28.36;56.55
54248;BME280;40161;39.768;2.722;2023-08-08T11:19:12;101435.38;;;28.44;55.44
54248;BME280;40161;39.768;2.722;2023-08-08T11:21:41;101440.84;;;28.48;55.73
54248;BME280;40161;39.768;2.722;2023-08-08T11:24:07;101428.00;;;28.47;56.35
54248;BME280;40161;39.768;2.722;2023-08-08T11:26:37;101403.34;;;28.38;55.72
54248;BME280;40161;39.768;2.722;2023-08-08T11:29:04;101427.50;;;28.57;54.62
54248;BME280;40161;39.768;2.722;2023-08-08T11:31:31;101420.41;;;28.71;55.17
54248;BME280;40161;39.768;2.722;2023-08-08T11:33:58;101429.00;;;28.77;54.52
54248;BME280;40161;39.768;2.722;2023-08-08T11:36:25;101423.81;;;28.75;55.03
54248;BME280;40161;39.768;2.722;2023-08-08T11:38:51;101407.72;;;28.67;54.50
54248;BME280;40161;39.768;2.722;2023-08-08T11:41:19;101389.50;;;28.68;53.70
54248;BME280;40161;39.768;2.722;2023-08-08T11:43:46;101417.38;;;28.84;53.12
54248;BME280;40161;39.768;2.722;2023-08-08T11:46:12;101392.16;;;28.71;54.01
54248;BME280;40161;39.768;2.722;2023-08-08T11:48:38;101401.22;;;28.75;53.42
54248;BME280;40161;39.768;2.722;2023-08-08T11:51:05;101376.66;;;28.67;53.13
54248;BME280;40161;39.768;2.722;2023-08-08T11:53:30;101380.84;;;28.80;52.60
54248;BME280;40161;39.768;2.722;2023-08-08T11:55:57;101387.09;;;28.84;52.67
54248;BME280;40161;39.768;2.722;2023-08-08T11:58:25;101428.09;;;29.13;52.04
54248;BME280;40161;39.768;2.722;2023-08-08T12:00:51;101422.19;;;29.02;52.44
54248;BME280;40161;39.768;2.722;2023-08-08T12:03:18;101417.13;;;29.06;51.53
54248;BME280;40161;39.768;2.722;2023-08-08T12:05:47;101428.41;;;29.15;51.62
54248;BME280;40161;39.768;2.722;2023-08-08T12:08:19;101423.63;;;29.21;51.30
54248;BME280;40161;39.768;2.722;2023-08-08T12:10:49;101396.50;;;29.15;52.11
54248;BME280;40161;39.768;2.722;2023-08-08T12:13:20;101381.84;;;29.01;51.49
54248;BME280;40161;39.768;2.722;2023-08-08T12:15:47;101386.38;;;29.08;50.52
54248;BME280;40161;39.768;2.722;2023-08-08T12:18:16;101423.00;;;29.26;50.05
54248;BME280;40161;39.768;2.722;2023-08-08T12:20:42;101410.22;;;29.31;51.04
54248;BME280;40161;39.768;2.722;2023-08-08T12:23:07;101370.66;;;29.07;49.17
54248;BME280;40161;39.768;2.722;2023-08-08T12:25:33;101345.44;;;28.94;50.07
54248;BME280;40161;39.768;2.722;2023-08-08T12:27:58;101351.19;;;29.09;50.59
54248;BME280;40161;39.768;2.722;2023-08-08T12:30:24;101384.03;;;29.30;50.63
54248;BME280;40161;39.768;2.722;2023-08-08T12:32:49;101371.44;;;29.31;50.41
54248;BME280;40161;39.768;2.722;2023-08-08T12:35:15;101401.16;;;29.51;48.87
54248;BME280;40161;39.768;2.722;2023-08-08T12:37:42;101389.44;;;29.43;49.91
54248;BME280;40161;39.768;2.722;2023-08-08T12:40:08;101400.84;;;29.49;50.99
54248;BME280;40161;39.768;2.722;2023-08-08T12:42:33;101407.41;;;29.55;50.99
54248;BME280;40161;39.768;2.722;2023-08-08T12:44:59;101346.44;;;29.15;51.27
54248;BME280;40161;39.768;2.722;2023-08-08T12:47:24;101397.56;;;29.50;52.19